الصفحة الرئيسية
METAR-TAF:

METAR-TAF

مطار :

نادي, فيجي

دائرة عرض: 17-45S, خط طول: 177-27E, ارتفاع: 13 متر

مراقبة الطقس الحالي

تاريخ ووقت الإصدار 38 دقيقة قبل الساعة 07:00UTC
ريح 4 عقدة من الشرق
درجة الحرارة 28°درجة مئوية
الرطوبة 84%
ضغط 1010 hPa
الرؤية 10 كم أو أكثر
غيوم متفرقة على ارتفاع 2800 قدم
غيوم متفرقة على ارتفاع 4800 قدم

METAR: NFFN 170700Z 08004KT 9999 SCT028 SCT048 28/25 Q1010 NOSIG

زمن: 19:38 (07:38 UTC)

توقعات

تاريخ ووقت الإصدار 2ساعات و 30 دقيقة قبل الساعة 05:08UTC
التوقعات صالحة من17 الساعة 06 UTC إلى 18 الساعة 06 UTC
ريح 5 عقدة من الشرق/الجنوب الشرقي
الرؤية 10 كم أو أكثر
غيوم متفرقة على ارتفاع 2500 قدم
أصبح
من 17 الساعة 22 UTC إلى 17 الساعة 24 UTC
ريح 10 عقدة من الغرب/الشمال الغربي
نظرية الاحتمالات 30% :
مؤقت
من 18 الساعة 02 UTC إلى 18 الساعة 06 UTC
الرؤية: 5000 متر
غيوم مفككة على ارتفاع 1500 قدم
زخات من المطر
أصبح
من 18 الساعة 04 UTC إلى 18 الساعة 06 UTC
ريح 5 عقدة من الشرق/الجنوب الشرقي

TAF: NFFN 170508Z 1706/1806 12005KT 9999 SCT025 BECMG 1722/1724 30010KT PROB30 TEMPO 1802/1806 5000 SHRA BKN015 BECMG 1804/1806 12005KT

أرصاد الطقس والتوقعات من أكثر من 4000 مطار (تقارير الطقس للمطار METAR والتنبؤ بالطقس بالمطارTAF).

المحطات المتاحة هي النقط الصفراء والحمراء على الخريطة.

حرك المؤشر فوق النقطة لمعرفة اسم المحطة.

ثم انقر لمعرفة أرصاد وتوقعات الطقس.

لتغيير الخارطة: اضغط على الأزرار الخضراء مع رمز الصليب الأسود للتكبير. على الزر الأخضر مع شرطة للتصغير، أو على الأسهم الخضراء للخرائط المجاورة.


METAR-TAF: